sensor_id;sensor_type;location;lat;lon;timestamp;pressure;altitude;pressure_sealevel;temperature;humidity
76680;BME280;65597;51.520;-0.224;2023-04-01T00:01:37;99792.51;;;6.74;62.61
76680;BME280;65597;51.520;-0.224;2023-04-01T00:04:03;99794.65;;;6.54;62.84
76680;BME280;65597;51.520;-0.224;2023-04-01T00:06:28;99800.44;;;6.93;62.04
76680;BME280;65597;51.520;-0.224;2023-04-01T00:08:53;99800.06;;;7.10;61.50
76680;BME280;65597;51.520;-0.224;2023-04-01T00:11:18;99805.65;;;6.81;62.26
76680;BME280;65597;51.520;-0.224;2023-04-01T00:13:44;99808.80;;;7.44;60.47
76680;BME280;65597;51.520;-0.224;2023-04-01T00:16:09;99806.57;;;6.95;61.24
76680;BME280;65597;51.520;-0.224;2023-04-01T00:18:35;99811.35;;;6.86;61.18
76680;BME280;65597;51.520;-0.224;2023-04-01T00:21:01;99813.73;;;7.89;60.03
76680;BME280;65597;51.520;-0.224;2023-04-01T00:23:25;99816.11;;;6.94;60.30
76680;BME280;65597;51.520;-0.224;2023-04-01T00:25:51;99817.94;;;7.82;59.47
76680;BME280;65597;51.520;-0.224;2023-04-01T00:28:17;99821.80;;;7.57;58.96
76680;BME280;65597;51.520;-0.224;2023-04-01T00:30:41;99823.31;;;7.26;60.37
76680;BME280;65597;51.520;-0.224;2023-04-01T00:33:08;99827.41;;;6.76;60.93
76680;BME280;65597;51.520;-0.224;2023-04-01T00:35:32;99831.49;;;6.96;60.60
76680;BME280;65597;51.520;-0.224;2023-04-01T00:37:57;99839.74;;;7.23;60.05
76680;BME280;65597;51.520;-0.224;2023-04-01T00:40:26;99845.65;;;6.92;60.64
76680;BME280;65597;51.520;-0.224;2023-04-01T00:42:48;99842.13;;;6.57;61.53
76680;BME280;65597;51.520;-0.224;2023-04-01T00:45:27;99843.24;;;6.83;60.96
76680;BME280;65597;51.520;-0.224;2023-04-01T00:47:39;99848.66;;;6.50;62.28
76680;BME280;65597;51.520;-0.224;2023-04-01T00:50:05;99845.72;;;6.84;61.19
76680;BME280;65597;51.520;-0.224;2023-04-01T00:52:30;99852.52;;;7.56;60.28
76680;BME280;65597;51.520;-0.224;2023-04-01T00:54:59;99853.27;;;6.96;60.82
76680;BME280;65597;51.520;-0.224;2023-04-01T00:57:27;99855.01;;;6.88;61.03
76680;BME280;65597;51.520;-0.224;2023-04-01T00:59:48;99860.65;;;6.83;61.19
76680;BME280;65597;51.520;-0.224;2023-04-01T01:02:13;99863.88;;;7.11;60.74
76680;BME280;65597;51.520;-0.224;2023-04-01T01:04:37;99864.59;;;6.87;61.66
76680;BME280;65597;51.520;-0.224;2023-04-01T01:07:12;99871.13;;;7.16;60.61
76680;BME280;65597;51.520;-0.224;2023-04-01T01:09:37;99871.47;;;7.27;60.44
76680;BME280;65597;51.520;-0.224;2023-04-01T01:12:00;99873.85;;;7.59;59.86
76680;BME280;65597;51.520;-0.224;2023-04-01T01:14:28;99878.27;;;7.77;59.24
76680;BME280;65597;51.520;-0.224;2023-04-01T01:16:48;99882.37;;;7.56;59.45
76680;BME280;65597;51.520;-0.224;2023-04-01T01:19:20;99883.77;;;7.45;59.30
76680;BME280;65597;51.520;-0.224;2023-04-01T01:21:50;99887.63;;;7.49;58.97
76680;BME280;65597;51.520;-0.224;2023-04-01T01:24:12;99892.29;;;8.01;57.96
76680;BME280;65597;51.520;-0.224;2023-04-01T01:26:37;99889.91;;;6.99;59.95
76680;BME280;65597;51.520;-0.224;2023-04-01T01:28:58;99895.23;;;6.99;59.66
76680;BME280;65597;51.520;-0.224;2023-04-01T01:31:20;99899.44;;;7.22;59.54
76680;BME280;65597;51.520;-0.224;2023-04-01T01:33:53;99903.18;;;6.84;59.82
76680;BME280;65597;51.520;-0.224;2023-04-01T01:36:09;99913.42;;;7.00;59.91
76680;BME280;65597;51.520;-0.224;2023-04-01T01:38:34;99907.92;;;6.84;61.01
76680;BME280;65597;51.520;-0.224;2023-04-01T01:40:59;99910.35;;;6.55;61.01
76680;BME280;65597;51.520;-0.224;2023-04-01T01:43:27;99911.34;;;6.88;59.91
76680;BME280;65597;51.520;-0.224;2023-04-01T01:45:53;99912.85;;;7.13;59.93
76680;BME280;65597;51.520;-0.224;2023-04-01T01:48:16;99916.99;;;7.04;60.01
76680;BME280;65597;51.520;-0.224;2023-04-01T01:50:41;99918.03;;;6.97;59.30
76680;BME280;65597;51.520;-0.224;2023-04-01T01:53:08;99928.74;;;6.64;60.42
76680;BME280;65597;51.520;-0.224;2023-04-01T01:55:33;99925.28;;;6.92;59.81
76680;BME280;65597;51.520;-0.224;2023-04-01T01:58:00;99929.44;;;6.79;59.93
76680;BME280;65597;51.520;-0.224;2023-04-01T02:00:22;99933.28;;;6.32;61.13
76680;BME280;65597;51.520;-0.224;2023-04-01T02:02:48;99936.41;;;6.94;59.17
76680;BME280;65597;51.520;-0.224;2023-04-01T02:05:16;99940.18;;;6.69;59.95
76680;BME280;65597;51.520;-0.224;2023-04-01T02:07:39;99943.61;;;6.97;59.21
76680;BME280;65597;51.520;-0.224;2023-04-01T02:10:15;99944.41;;;7.19;58.69
76680;BME280;65597;51.520;-0.224;2023-04-01T02:12:30;99946.76;;;6.57;59.58
76680;BME280;65597;51.520;-0.224;2023-04-01T02:14:57;99949.58;;;6.72;59.15
76680;BME280;65597;51.520;-0.224;2023-04-01T02:17:22;99952.83;;;7.26;58.23
76680;BME280;65597;51.520;-0.224;2023-04-01T02:19:49;99955.86;;;6.74;58.69
76680;BME280;65597;51.520;-0.224;2023-04-01T02:22:16;99955.58;;;6.85;59.10
76680;BME280;65597;51.520;-0.224;2023-04-01T02:24:37;99957.10;;;6.25;59.95
76680;BME280;65597;51.520;-0.224;2023-04-01T02:27:03;99962.55;;;7.45;57.47
76680;BME280;65597;51.520;-0.224;2023-04-01T02:29:27;99966.61;;;6.87;58.54
76680;BME280;65597;51.520;-0.224;2023-04-01T02:31:54;99968.24;;;7.39;57.63
76680;BME280;65597;51.520;-0.224;2023-04-01T02:34:20;99971.17;;;7.44;57.20
76680;BME280;65597;51.520;-0.224;2023-04-01T02:36:44;99975.29;;;7.50;57.13
76680;BME280;65597;51.520;-0.224;2023-04-01T02:39:09;99976.96;;;7.75;56.76
76680;BME280;65597;51.520;-0.224;2023-04-01T02:41:39;99977.23;;;8.02;56.06
76680;BME280;65597;51.520;-0.224;2023-04-01T02:44:00;99983.44;;;7.76;56.27
76680;BME280;65597;51.520;-0.224;2023-04-01T02:46:26;99985.78;;;6.92;57.84
76680;BME280;65597;51.520;-0.224;2023-04-01T02:48:51;99985.69;;;7.34;57.40
76680;BME280;65597;51.520;-0.224;2023-04-01T02:51:16;99988.55;;;6.89;58.06
76680;BME280;65597;51.520;-0.224;2023-04-01T02:53:42;99987.30;;;7.31;57.86
76680;BME280;65597;51.520;-0.224;2023-04-01T02:56:07;99990.05;;;7.48;56.97
76680;BME280;65597;51.520;-0.224;2023-04-01T02:58:34;99990.41;;;7.93;56.04
76680;BME280;65597;51.520;-0.224;2023-04-01T03:00:58;99992.07;;;8.01;55.65
76680;BME280;65597;51.520;-0.224;2023-04-01T03:03:24;99993.29;;;8.06;55.39
76680;BME280;65597;51.520;-0.224;2023-04-01T03:05:49;99996.93;;;7.84;55.70
76680;BME280;65597;51.520;-0.224;2023-04-01T03:08:14;100002.40;;;8.00;55.35
76680;BME280;65597;51.520;-0.224;2023-04-01T03:10:41;100007.65;;;7.87;55.28
76680;BME280;65597;51.520;-0.224;2023-04-01T03:13:05;100010.27;;;8.35;54.20
76680;BME280;65597;51.520;-0.224;2023-04-01T03:15:31;100008.43;;;7.96;54.87
76680;BME280;65597;51.520;-0.224;2023-04-01T03:17:56;100011.63;;;8.26;54.34
76680;BME280;65597;51.520;-0.224;2023-04-01T03:20:21;100013.93;;;8.38;53.99
76680;BME280;65597;51.520;-0.224;2023-04-01T03:22:47;100014.11;;;7.35;55.45
76680;BME280;65597;51.520;-0.224;2023-04-01T03:25:13;100011.67;;;7.63;55.08
76680;BME280;65597;51.520;-0.224;2023-04-01T03:27:38;100017.67;;;7.15;55.76
76680;BME280;65597;51.520;-0.224;2023-04-01T03:30:05;100017.76;;;7.96;54.85
76680;BME280;65597;51.520;-0.224;2023-04-01T03:32:29;100017.58;;;7.91;54.71
76680;BME280;65597;51.520;-0.224;2023-04-01T03:34:55;100022.48;;;7.99;54.79
76680;BME280;65597;51.520;-0.224;2023-04-01T03:37:20;100027.76;;;7.45;56.09
76680;BME280;65597;51.520;-0.224;2023-04-01T03:39:45;100029.30;;;7.63;55.52
76680;BME280;65597;51.520;-0.224;2023-04-01T03:42:11;100033.94;;;7.88;55.14
76680;BME280;65597;51.520;-0.224;2023-04-01T03:44:36;100033.50;;;7.86;55.23
76680;BME280;65597;51.520;-0.224;2023-04-01T03:47:02;100035.54;;;7.92;55.12
76680;BME280;65597;51.520;-0.224;2023-04-01T03:49:27;100038.97;;;7.70;55.71
76680;BME280;65597;51.520;-0.224;2023-04-01T03:51:53;100041.47;;;7.91;55.18
76680;BME280;65597;51.520;-0.224;2023-04-01T03:54:18;100043.20;;;7.81;55.95
76680;BME280;65597;51.520;-0.224;2023-04-01T03:56:43;100047.44;;;8.37;55.26
76680;BME280;65597;51.520;-0.224;2023-04-01T03:59:09;100049.22;;;7.07;56.86
76680;BME280;65597;51.520;-0.224;2023-04-01T04:01:34;100053.03;;;7.04;56.97
76680;BME280;65597;51.520;-0.224;2023-04-01T04:04:05;100056.90;;;7.51;56.27
76680;BME280;65597;51.520;-0.224;2023-04-01T04:06:26;100056.71;;;7.76;55.81
76680;BME280;65597;51.520;-0.224;2023-04-01T04:08:50;100063.20;;;7.63;55.79
76680;BME280;65597;51.520;-0.224;2023-04-01T04:11:16;100066.74;;;7.62;55.96
76680;BME280;65597;51.520;-0.224;2023-04-01T04:13:43;100069.37;;;8.43;54.60
76680;BME280;65597;51.520;-0.224;2023-04-01T04:16:08;100075.26;;;8.70;54.29
76680;BME280;65597;51.520;-0.224;2023-04-01T04:18:33;100080.14;;;8.58;53.79
76680;BME280;65597;51.520;-0.224;2023-04-01T04:20:58;100082.47;;;8.73;53.39
76680;BME280;65597;51.520;-0.224;2023-04-01T04:23:25;100083.11;;;8.35;53.94
76680;BME280;65597;51.520;-0.224;2023-04-01T04:25:56;100087.26;;;7.36;56.44
76680;BME280;65597;51.520;-0.224;2023-04-01T04:28:14;100090.22;;;7.76;55.94
76680;BME280;65597;51.520;-0.224;2023-04-01T04:30:40;100093.51;;;8.01;55.47
76680;BME280;65597;51.520;-0.224;2023-04-01T04:33:05;100093.47;;;7.80;55.44
76680;BME280;65597;51.520;-0.224;2023-04-01T04:35:31;100094.74;;;8.06;54.52
76680;BME280;65597;51.520;-0.224;2023-04-01T04:37:56;100099.64;;;7.57;55.66
76680;BME280;65597;51.520;-0.224;2023-04-01T04:40:21;100103.14;;;7.98;54.90
76680;BME280;65597;51.520;-0.224;2023-04-01T04:42:47;100102.09;;;8.34;54.34
76680;BME280;65597;51.520;-0.224;2023-04-01T04:45:13;100102.20;;;8.41;54.03
76680;BME280;65597;51.520;-0.224;2023-04-01T04:47:38;100103.53;;;8.65;53.50
76680;BME280;65597;51.520;-0.224;2023-04-01T04:50:04;100105.40;;;7.96;54.40
76680;BME280;65597;51.520;-0.224;2023-04-01T04:52:29;100110.62;;;8.17;54.20
76680;BME280;65597;51.520;-0.224;2023-04-01T04:54:54;100109.80;;;8.70;53.41
76680;BME280;65597;51.520;-0.224;2023-04-01T04:57:20;100115.23;;;8.36;53.94
76680;BME280;65597;51.520;-0.224;2023-04-01T04:59:45;100115.31;;;8.47;53.69
76680;BME280;65597;51.520;-0.224;2023-04-01T05:02:11;100119.34;;;8.47;53.41
76680;BME280;65597;51.520;-0.224;2023-04-01T05:04:36;100120.76;;;7.72;54.65
76680;BME280;65597;51.520;-0.224;2023-04-01T05:07:02;100126.72;;;7.81;54.47
76680;BME280;65597;51.520;-0.224;2023-04-01T05:09:27;100135.24;;;7.69;54.36
76680;BME280;65597;51.520;-0.224;2023-04-01T05:11:54;100133.59;;;7.58;54.41
76680;BME280;65597;51.520;-0.224;2023-04-01T05:14:18;100136.17;;;8.06;53.79
76680;BME280;65597;51.520;-0.224;2023-04-01T05:16:43;100142.33;;;7.99;53.77
76680;BME280;65597;51.520;-0.224;2023-04-01T05:19:09;100143.93;;;7.85;53.74
76680;BME280;65597;51.520;-0.224;2023-04-01T05:21:34;100146.92;;;7.83;53.86
76680;BME280;65597;51.520;-0.224;2023-04-01T05:24:02;100148.77;;;7.64;53.90
76680;BME280;65597;51.520;-0.224;2023-04-01T05:26:25;100148.99;;;7.57;53.15
76680;BME280;65597;51.520;-0.224;2023-04-01T05:28:51;100154.45;;;7.69;53.95
76680;BME280;65597;51.520;-0.224;2023-04-01T05:31:16;100152.28;;;6.93;54.85
76680;BME280;65597;51.520;-0.224;2023-04-01T05:33:42;100155.00;;;7.30;54.18
76680;BME280;65597;51.520;-0.224;2023-04-01T05:36:11;100154.26;;;7.88;53.75
76680;BME280;65597;51.520;-0.224;2023-04-01T05:38:33;100156.14;;;7.89;53.18
76680;BME280;65597;51.520;-0.224;2023-04-01T05:40:59;100158.96;;;7.93;52.57
76680;BME280;65597;51.520;-0.224;2023-04-01T05:43:23;100164.22;;;7.61;52.62
76680;BME280;65597;51.520;-0.224;2023-04-01T05:45:49;100165.09;;;7.99;51.83
76680;BME280;65597;51.520;-0.224;2023-04-01T05:48:14;100171.52;;;8.04;51.84
76680;BME280;65597;51.520;-0.224;2023-04-01T05:50:40;100178.58;;;7.64;53.22
76680;BME280;65597;51.520;-0.224;2023-04-01T05:53:05;100180.34;;;7.02;53.70
76680;BME280;65597;51.520;-0.224;2023-04-01T05:55:31;100181.72;;;7.43;53.05
76680;BME280;65597;51.520;-0.224;2023-04-01T05:57:56;100183.01;;;8.14;51.97
76680;BME280;65597;51.520;-0.224;2023-04-01T06:00:23;100186.72;;;8.61;51.66
76680;BME280;65597;51.520;-0.224;2023-04-01T06:02:47;100190.16;;;8.63;51.24
76680;BME280;65597;51.520;-0.224;2023-04-01T06:05:16;100191.88;;;8.63;51.03
76680;BME280;65597;51.520;-0.224;2023-04-01T06:07:38;100193.30;;;8.64;51.03
76680;BME280;65597;51.520;-0.224;2023-04-01T06:10:11;100196.95;;;8.64;50.65
76680;BME280;65597;51.520;-0.224;2023-04-01T06:12:39;100200.66;;;8.73;51.05
76680;BME280;65597;51.520;-0.224;2023-04-01T06:15:03;100204.81;;;7.68;52.87
76680;BME280;65597;51.520;-0.224;2023-04-01T06:17:41;100209.08;;;7.48;53.59
76680;BME280;65597;51.520;-0.224;2023-04-01T06:19:51;100206.94;;;6.30;55.42
76680;BME280;65597;51.520;-0.224;2023-04-01T06:22:19;100212.33;;;6.81;55.30
76680;BME280;65597;51.520;-0.224;2023-04-01T06:24:47;100217.29;;;6.94;55.17
76680;BME280;65597;51.520;-0.224;2023-04-01T06:27:06;100218.11;;;7.49;54.16
76680;BME280;65597;51.520;-0.224;2023-04-01T06:29:41;100221.32;;;7.87;53.46
76680;BME280;65597;51.520;-0.224;2023-04-01T06:32:06;100226.37;;;7.80;53.49
76680;BME280;65597;51.520;-0.224;2023-04-01T06:34:32;100230.02;;;7.49;53.36
76680;BME280;65597;51.520;-0.224;2023-04-01T06:36:54;100230.80;;;7.39;54.11
76680;BME280;65597;51.520;-0.224;2023-04-01T06:39:18;100231.99;;;8.15;52.80
76680;BME280;65597;51.520;-0.224;2023-04-01T06:44:07;100237.53;;;8.22;52.10
76680;BME280;65597;51.520;-0.224;2023-04-01T06:46:36;100244.40;;;8.50;51.47
76680;BME280;65597;51.520;-0.224;2023-04-01T06:49:04;100246.35;;;8.59;51.06
76680;BME280;65597;51.520;-0.224;2023-04-01T06:51:23;100247.71;;;8.96;50.39
76680;BME280;65597;51.520;-0.224;2023-04-01T06:53:46;100250.70;;;8.52;50.79
76680;BME280;65597;51.520;-0.224;2023-04-01T06:56:08;100251.08;;;8.76;50.54
76680;BME280;65597;51.520;-0.224;2023-04-01T06:58:36;100251.79;;;8.11;51.51
76680;BME280;65597;51.520;-0.224;2023-04-01T07:00:59;100255.53;;;8.47;50.95
76680;BME280;65597;51.520;-0.224;2023-04-01T07:03:27;100259.24;;;8.65;51.03
76680;BME280;65597;51.520;-0.224;2023-04-01T07:05:48;100259.54;;;8.48;51.28
76680;BME280;65597;51.520;-0.224;2023-04-01T07:08:18;100262.25;;;8.08;51.58
76680;BME280;65597;51.520;-0.224;2023-04-01T07:10:43;100264.77;;;8.34;51.39
76680;BME280;65597;51.520;-0.224;2023-04-01T07:13:07;100272.27;;;8.27;51.77
76680;BME280;65597;51.520;-0.224;2023-04-01T07:15:33;100275.42;;;7.66;52.79
76680;BME280;65597;51.520;-0.224;2023-04-01T07:17:58;100277.54;;;7.70;52.98
76680;BME280;65597;51.520;-0.224;2023-04-01T07:20:24;100279.91;;;7.71;52.64
76680;BME280;65597;51.520;-0.224;2023-04-01T07:22:49;100285.39;;;7.87;52.47
76680;BME280;65597;51.520;-0.224;2023-04-01T07:25:16;100286.94;;;8.08;52.59
76680;BME280;65597;51.520;-0.224;2023-04-01T07:27:37;100292.06;;;7.71;52.44
76680;BME280;65597;51.520;-0.224;2023-04-01T07:30:06;100293.29;;;7.80;52.51
76680;BME280;65597;51.520;-0.224;2023-04-01T07:32:34;100297.40;;;8.64;51.66
76680;BME280;65597;51.520;-0.224;2023-04-01T07:35:03;100299.76;;;8.68;51.28
76680;BME280;65597;51.520;-0.224;2023-04-01T07:37:24;100302.38;;;8.83;50.96
76680;BME280;65597;51.520;-0.224;2023-04-01T07:39:52;100306.44;;;8.86;50.63
76680;BME280;65597;51.520;-0.224;2023-04-01T07:42:16;100310.59;;;8.97;50.66
76680;BME280;65597;51.520;-0.224;2023-04-01T07:44:41;100313.28;;;9.15;50.17
76680;BME280;65597;51.520;-0.224;2023-04-01T07:47:16;100316.44;;;9.26;49.80
76680;BME280;65597;51.520;-0.224;2023-04-01T07:49:35;100323.78;;;7.71;51.63
76680;BME280;65597;51.520;-0.224;2023-04-01T07:52:02;100325.80;;;8.23;51.46
76680;BME280;65597;51.520;-0.224;2023-04-01T07:54:22;100331.71;;;7.86;51.71
76680;BME280;65597;51.520;-0.224;2023-04-01T07:56:46;100330.04;;;7.87;52.17
76680;BME280;65597;51.520;-0.224;2023-04-01T07:59:15;100334.55;;;7.80;52.10
76680;BME280;65597;51.520;-0.224;2023-04-01T08:01:40;100339.16;;;7.48;53.00
76680;BME280;65597;51.520;-0.224;2023-04-01T08:04:17;100339.26;;;7.77;52.66
76680;BME280;65597;51.520;-0.224;2023-04-01T08:06:28;100345.42;;;7.76;52.70
76680;BME280;65597;51.520;-0.224;2023-04-01T08:08:58;100349.56;;;7.69;53.44
76680;BME280;65597;51.520;-0.224;2023-04-01T08:11:25;100353.27;;;7.91;52.87
76680;BME280;65597;51.520;-0.224;2023-04-01T08:13:50;100353.73;;;7.84;52.52
76680;BME280;65597;51.520;-0.224;2023-04-01T08:16:13;100359.11;;;7.17;53.58
76680;BME280;65597;51.520;-0.224;2023-04-01T08:18:39;100359.65;;;7.56;53.39
76680;BME280;65597;51.520;-0.224;2023-04-01T08:20:59;100358.47;;;7.76;53.05
76680;BME280;65597;51.520;-0.224;2023-04-01T08:23:26;100361.88;;;7.84;52.94
76680;BME280;65597;51.520;-0.224;2023-04-01T08:25:53;100368.58;;;7.36;52.78
76680;BME280;65597;51.520;-0.224;2023-04-01T08:28:19;100367.98;;;7.93;52.30
76680;BME280;65597;51.520;-0.224;2023-04-01T08:30:42;100371.45;;;8.36;51.75
76680;BME280;65597;51.520;-0.224;2023-04-01T08:33:10;100377.69;;;8.14;51.54
76680;BME280;65597;51.520;-0.224;2023-04-01T08:35:34;100382.13;;;8.28;51.63
76680;BME280;65597;51.520;-0.224;2023-04-01T08:38:01;100390.83;;;8.51;51.24
76680;BME280;65597;51.520;-0.224;2023-04-01T08:40:41;100393.68;;;8.28;51.23
76680;BME280;65597;51.520;-0.224;2023-04-01T08:43:01;100398.19;;;8.00;51.77
76680;BME280;65597;51.520;-0.224;2023-04-01T08:45:26;100404.57;;;7.86;52.03
76680;BME280;65597;51.520;-0.224;2023-04-01T08:47:45;100405.72;;;7.86;52.20
76680;BME280;65597;51.520;-0.224;2023-04-01T08:50:23;100408.56;;;7.76;52.53
76680;BME280;65597;51.520;-0.224;2023-04-01T08:52:34;100410.53;;;8.26;52.33
76680;BME280;65597;51.520;-0.224;2023-04-01T08:57:31;100419.50;;;7.98;52.04
76680;BME280;65597;51.520;-0.224;2023-04-01T08:59:56;100419.43;;;7.16;53.20
76680;BME280;65597;51.520;-0.224;2023-04-01T09:02:22;100419.82;;;8.19;51.49
76680;BME280;65597;51.520;-0.224;2023-04-01T09:04:46;100418.52;;;8.75;50.65
76680;BME280;65597;51.520;-0.224;2023-04-01T09:07:10;100425.11;;;7.75;51.17
76680;BME280;65597;51.520;-0.224;2023-04-01T09:09:40;100432.60;;;7.96;51.53
76680;BME280;65597;51.520;-0.224;2023-04-01T09:14:29;100433.75;;;8.21;50.91
76680;BME280;65597;51.520;-0.224;2023-04-01T09:17:01;100438.77;;;8.44;50.39
76680;BME280;65597;51.520;-0.224;2023-04-01T09:19:20;100437.57;;;8.78;50.39
76680;BME280;65597;51.520;-0.224;2023-04-01T09:21:46;100442.16;;;8.27;50.49
76680;BME280;65597;51.520;-0.224;2023-04-01T09:24:11;100445.53;;;8.42;51.04
76680;BME280;65597;51.520;-0.224;2023-04-01T09:26:44;100452.17;;;8.04;51.74
76680;BME280;65597;51.520;-0.224;2023-04-01T09:28:57;100461.58;;;7.46;52.55
76680;BME280;65597;51.520;-0.224;2023-04-01T09:31:25;100457.95;;;7.55;52.80
76680;BME280;65597;51.520;-0.224;2023-04-01T09:36:13;100468.26;;;6.96;53.59
76680;BME280;65597;51.520;-0.224;2023-04-01T09:38:39;100467.69;;;6.98;53.84
76680;BME280;65597;51.520;-0.224;2023-04-01T09:40:59;100469.96;;;7.14;53.93
76680;BME280;65597;51.520;-0.224;2023-04-01T09:43:26;100474.20;;;7.06;53.32
76680;BME280;65597;51.520;-0.224;2023-04-01T09:45:56;100475.90;;;7.42;53.41
76680;BME280;65597;51.520;-0.224;2023-04-01T09:48:24;100481.11;;;6.89;54.08
76680;BME280;65597;51.520;-0.224;2023-04-01T09:50:48;100480.02;;;7.17;53.43
76680;BME280;65597;51.520;-0.224;2023-04-01T09:53:14;100485.20;;;7.73;52.97
76680;BME280;65597;51.520;-0.224;2023-04-01T09:58:06;100490.75;;;7.23;52.70
76680;BME280;65597;51.520;-0.224;2023-04-01T10:00:32;100491.20;;;7.78;51.93
76680;BME280;65597;51.520;-0.224;2023-04-01T10:05:22;100498.97;;;8.23;51.22
76680;BME280;65597;51.520;-0.224;2023-04-01T10:07:49;100503.39;;;8.21;51.11
76680;BME280;65597;51.520;-0.224;2023-04-01T10:10:21;100509.44;;;7.62;51.92
76680;BME280;65597;51.520;-0.224;2023-04-01T10:12:45;100508.77;;;7.80;51.85
76680;BME280;65597;51.520;-0.224;2023-04-01T10:17:33;100514.29;;;7.99;51.85
76680;BME280;65597;51.520;-0.224;2023-04-01T10:19:55;100519.81;;;7.84;52.43
76680;BME280;65597;51.520;-0.224;2023-04-01T10:24:47;100520.70;;;7.09;53.37
76680;BME280;65597;51.520;-0.224;2023-04-01T10:27:12;100526.03;;;7.83;52.75
76680;BME280;65597;51.520;-0.224;2023-04-01T10:29:47;100529.73;;;7.90;52.24
76680;BME280;65597;51.520;-0.224;2023-04-01T10:32:10;100532.30;;;7.24;52.89
76680;BME280;65597;51.520;-0.224;2023-04-01T10:34:43;100537.80;;;7.52;52.91
76680;BME280;65597;51.520;-0.224;2023-04-01T10:36:49;100540.63;;;7.38;52.92
76680;BME280;65597;51.520;-0.224;2023-04-01T10:39:20;100544.83;;;7.79;52.32
76680;BME280;65597;51.520;-0.224;2023-04-01T10:44:11;100547.14;;;8.05;51.58
76680;BME280;65597;51.520;-0.224;2023-04-01T10:49:03;100557.29;;;8.62;50.99
76680;BME280;65597;51.520;-0.224;2023-04-01T10:51:25;100556.66;;;7.96;51.59
76680;BME280;65597;51.520;-0.224;2023-04-01T10:53:49;100560.19;;;8.41;50.86
76680;BME280;65597;51.520;-0.224;2023-04-01T10:58:49;100572.46;;;7.83;51.93
76680;BME280;65597;51.520;-0.224;2023-04-01T11:15:39;100574.99;;;9.59;48.63
76680;BME280;65597;51.520;-0.224;2023-04-01T11:20:35;100582.92;;;9.04;48.93
76680;BME280;65597;51.520;-0.224;2023-04-01T11:25:20;100593.70;;;9.01;48.81
76680;BME280;65597;51.520;-0.224;2023-04-01T11:27:50;100588.98;;;9.43;48.53
76680;BME280;65597;51.520;-0.224;2023-04-01T11:30:11;100592.42;;;9.70;48.37
76680;BME280;65597;51.520;-0.224;2023-04-01T11:32:34;100594.65;;;9.94;47.75
76680;BME280;65597;51.520;-0.224;2023-04-01T11:35:02;100598.74;;;10.11;47.15
76680;BME280;65597;51.520;-0.224;2023-04-01T11:37:28;100605.66;;;10.11;46.66
76680;BME280;65597;51.520;-0.224;2023-04-01T11:39:50;100602.83;;;10.28;46.55
76680;BME280;65597;51.520;-0.224;2023-04-01T11:42:17;100605.96;;;10.29;48.65
76680;BME280;65597;51.520;-0.224;2023-04-01T11:44:39;100608.52;;;10.10;46.48
76680;BME280;65597;51.520;-0.224;2023-04-01T11:47:14;100614.79;;;10.08;46.99
76680;BME280;65597;51.520;-0.224;2023-04-01T11:49:33;100615.82;;;9.09;47.24
76680;BME280;65597;51.520;-0.224;2023-04-01T11:52:06;100629.00;;;9.17;47.18
76680;BME280;65597;51.520;-0.224;2023-04-01T11:54:28;100625.08;;;9.74;46.63
76680;BME280;65597;51.520;-0.224;2023-04-01T11:56:52;100629.93;;;9.07;45.38
76680;BME280;65597;51.520;-0.224;2023-04-01T11:59:29;100631.76;;;9.31;45.38
76680;BME280;65597;51.520;-0.224;2023-04-01T12:01:44;100633.73;;;10.05;45.33
76680;BME280;65597;51.520;-0.224;2023-04-01T12:04:16;100640.52;;;9.05;46.13
76680;BME280;65597;51.520;-0.224;2023-04-01T12:06:29;100646.91;;;9.56;46.78
76680;BME280;65597;51.520;-0.224;2023-04-01T12:08:54;100649.16;;;9.42;47.10
76680;BME280;65597;51.520;-0.224;2023-04-01T12:11:18;100649.20;;;8.86;48.07
76680;BME280;65597;51.520;-0.224;2023-04-01T12:13:44;100643.76;;;9.78;46.93
76680;BME280;65597;51.520;-0.224;2023-04-01T12:16:16;100649.91;;;9.80;47.17
76680;BME280;65597;51.520;-0.224;2023-04-01T12:18:35;100655.05;;;8.64;46.29
76680;BME280;65597;51.520;-0.224;2023-04-01T12:20:58;100655.55;;;9.19;45.34
76680;BME280;65597;51.520;-0.224;2023-04-01T12:26:00;100655.75;;;9.92;44.53
76680;BME280;65597;51.520;-0.224;2023-04-01T12:28:20;100661.07;;;10.15;44.62
76680;BME280;65597;51.520;-0.224;2023-04-01T12:30:44;100662.98;;;10.38;44.46
76680;BME280;65597;51.520;-0.224;2023-04-01T12:33:17;100672.52;;;10.60;44.73
76680;BME280;65597;51.520;-0.224;2023-04-01T12:35:37;100674.80;;;10.81;44.27
76680;BME280;65597;51.520;-0.224;2023-04-01T12:38:07;100681.51;;;10.77;44.05
76680;BME280;65597;51.520;-0.224;2023-04-01T12:42:55;100690.64;;;10.13;43.62
76680;BME280;65597;51.520;-0.224;2023-04-01T12:45:27;100692.65;;;10.52;43.49
76680;BME280;65597;51.520;-0.224;2023-04-01T12:47:49;100697.31;;;10.45;43.90
76680;BME280;65597;51.520;-0.224;2023-04-01T12:50:16;100701.93;;;11.08;44.20
76680;BME280;65597;51.520;-0.224;2023-04-01T12:52:35;100703.96;;;10.81;43.76
76680;BME280;65597;51.520;-0.224;2023-04-01T12:55:14;100704.39;;;10.94;43.47
76680;BME280;65597;51.520;-0.224;2023-04-01T12:59:53;100718.24;;;10.52;43.57
76680;BME280;65597;51.520;-0.224;2023-04-01T13:02:13;100724.34;;;9.66;45.25
76680;BME280;65597;51.520;-0.224;2023-04-01T13:04:44;100725.57;;;9.38;45.29
76680;BME280;65597;51.520;-0.224;2023-04-01T13:09:32;100734.77;;;9.07;46.75
76680;BME280;65597;51.520;-0.224;2023-04-01T13:12:00;100733.95;;;9.39;46.28
76680;BME280;65597;51.520;-0.224;2023-04-01T13:14:31;100736.61;;;9.72;46.02
76680;BME280;65597;51.520;-0.224;2023-04-01T13:16:41;100742.24;;;9.81;45.32
76680;BME280;65597;51.520;-0.224;2023-04-01T13:19:08;100741.88;;;9.64;45.24
76680;BME280;65597;51.520;-0.224;2023-04-01T13:21:39;100743.04;;;9.63;45.14
76680;BME280;65597;51.520;-0.224;2023-04-01T13:24:00;100741.18;;;9.99;43.99
76680;BME280;65597;51.520;-0.224;2023-04-01T13:26:26;100736.89;;;10.25;44.27
76680;BME280;65597;51.520;-0.224;2023-04-01T13:28:52;100736.39;;;10.57;43.78
76680;BME280;65597;51.520;-0.224;2023-04-01T13:31:24;100743.44;;;10.23;44.46
76680;BME280;65597;51.520;-0.224;2023-04-01T13:33:42;100748.40;;;10.39;44.36
76680;BME280;65597;51.520;-0.224;2023-04-01T13:36:12;100752.67;;;10.40;44.30
76680;BME280;65597;51.520;-0.224;2023-04-01T13:41:05;100773.10;;;10.06;43.86